createdAt,value
2022-09-06T00:00:42.817Z,8.13
2022-09-06T00:03:09.678Z,4.95
2022-09-06T00:05:37.625Z,6.03
2022-09-06T00:08:05.324Z,6.05
2022-09-06T00:10:31.980Z,4.95
2022-09-06T00:13:07.216Z,6.18
2022-09-06T00:15:34.682Z,5.63
2022-09-06T00:18:03.172Z,5.80
2022-09-06T00:20:31.085Z,6.20
2022-09-06T00:23:05.030Z,4.50
2022-09-06T00:25:31.392Z,3.63
2022-09-06T00:28:03.484Z,7.78
2022-09-06T00:30:31.680Z,10.80
2022-09-06T00:32:58.185Z,5.93
2022-09-06T00:35:25.967Z,3.08
2022-09-06T00:37:57.652Z,6.50
2022-09-06T00:40:24.814Z,8.63
2022-09-06T00:42:51.362Z,5.32
2022-09-06T00:45:18.309Z,7.68
2022-09-06T00:47:45.324Z,4.53
2022-09-06T00:50:15.254Z,4.65
2022-09-06T00:52:42.677Z,3.70
2022-09-06T00:55:09.886Z,5.80
2022-09-06T00:57:36.032Z,4.53
2022-09-06T01:00:04.982Z,4.47
2022-09-06T01:02:31.174Z,3.35
2022-09-06T01:04:57.645Z,8.18
2022-09-06T01:08:00.273Z,4.28
2022-09-06T01:11:04.810Z,4.53
2022-09-06T01:14:14.888Z,5.00
2022-09-06T01:17:14.538Z,5.15
2022-09-06T01:20:23.055Z,4.65
2022-09-06T01:22:52.192Z,3.75
2022-09-06T01:25:40.232Z,4.63
2022-09-06T01:28:34.552Z,4.07
2022-09-06T01:31:09.610Z,6.45
2022-09-06T01:33:49.216Z,5.82
2022-09-06T01:36:21.581Z,7.22
2022-09-06T01:38:48.075Z,4.60
2022-09-06T01:41:14.129Z,5.22
2022-09-06T01:43:44.671Z,5.30
2022-09-06T01:46:34.897Z,7.05
2022-09-06T01:49:18.888Z,6.15
2022-09-06T01:51:59.992Z,6.28
2022-09-06T01:54:35.315Z,4.57
2022-09-06T01:57:22.489Z,4.95
2022-09-06T02:00:05.720Z,6.97
2022-09-06T02:02:47.369Z,6.97
2022-09-06T02:05:22.572Z,5.50
2022-09-06T02:07:51.984Z,6.50
2022-09-06T02:10:37.782Z,7.07
2022-09-06T02:13:06.751Z,7.57
2022-09-06T02:15:37.428Z,6.05
2022-09-06T02:18:09.831Z,8.77
2022-09-06T02:20:41.292Z,6.90
2022-09-06T02:23:08.261Z,8.23
2022-09-06T02:25:40.912Z,9.32
2022-09-06T02:28:08.877Z,6.40
2022-09-06T02:30:40.379Z,5.78
2022-09-06T02:33:10.382Z,7.30
2022-09-06T02:35:48.333Z,10.38
2022-09-06T02:38:15.611Z,5.90
2022-09-06T02:40:42.660Z,5.70
2022-09-06T02:43:09.063Z,7.43
2022-09-06T02:45:35.537Z,7.72
2022-09-06T02:48:01.824Z,5.57
2022-09-06T02:50:27.964Z,5.65
2022-09-06T02:53:20.776Z,6.20
2022-09-06T02:55:48.327Z,6.78
2022-09-06T02:58:14.926Z,7.93
2022-09-06T03:00:41.044Z,5.60
2022-09-06T03:03:07.487Z,4.50
2022-09-06T03:05:33.939Z,7.82
2022-09-06T03:08:00.390Z,7.30
2022-09-06T03:10:26.661Z,6.38
2022-09-06T03:12:53.126Z,6.00
2022-09-06T03:15:19.386Z,12.27
2022-09-06T03:17:45.577Z,6.22
2022-09-06T03:20:12.244Z,8.40
2022-09-06T03:22:39.093Z,8.15
2022-09-06T03:25:09.459Z,6.80
2022-09-06T03:27:36.621Z,6.53
2022-09-06T03:30:04.172Z,6.45
2022-09-06T03:32:30.247Z,7.35
2022-09-06T03:34:56.657Z,6.75
2022-09-06T03:37:23.017Z,7.38
2022-09-06T03:39:49.419Z,6.65
2022-09-06T03:42:15.635Z,6.60
2022-09-06T03:44:41.731Z,5.40
2022-09-06T03:47:08.085Z,5.47
2022-09-06T03:49:34.501Z,5.70
2022-09-06T03:52:00.901Z,6.60
2022-09-06T03:54:28.376Z,10.10
2022-09-06T03:56:54.948Z,6.90
2022-09-06T03:59:21.087Z,6.18
2022-09-06T04:01:47.193Z,10.07
2022-09-06T04:04:15.492Z,5.35
2022-09-06T04:06:41.576Z,5.15
2022-09-06T04:09:08.034Z,6.85
2022-09-06T04:11:34.121Z,6.30
2022-09-06T04:14:00.322Z,5.97
2022-09-06T04:16:26.692Z,5.90
2022-09-06T04:18:52.874Z,6.38
2022-09-06T04:21:18.989Z,5.97
2022-09-06T04:23:45.159Z,9.30
2022-09-06T04:26:11.589Z,6.22
2022-09-06T04:28:37.808Z,4.88
2022-09-06T04:31:05.367Z,6.55
2022-09-06T04:33:33.317Z,7.05
2022-09-06T04:36:01.236Z,7.82
2022-09-06T04:38:29.359Z,5.20
2022-09-06T04:40:55.989Z,4.85
2022-09-06T04:43:23.129Z,5.80
2022-09-06T04:45:49.883Z,5.00
2022-09-06T04:48:16.157Z,7.55
2022-09-06T04:50:42.336Z,10.07
2022-09-06T04:53:10.501Z,4.82
2022-09-06T04:55:37.455Z,5.53
2022-09-06T04:58:05.797Z,5.93
2022-09-06T05:00:33.704Z,7.15
2022-09-06T05:02:59.812Z,6.80
2022-09-06T05:05:26.075Z,6.53
2022-09-06T05:07:53.308Z,6.03
2022-09-06T05:10:19.772Z,6.95
2022-09-06T05:12:50.298Z,6.43
2022-09-06T05:15:17.782Z,5.87
2022-09-06T05:17:44.052Z,10.45
2022-09-06T05:20:11.311Z,8.40
2022-09-06T05:22:37.888Z,7.88
2022-09-06T05:25:04.219Z,8.98
2022-09-06T05:27:30.362Z,7.22
2022-09-06T05:29:56.453Z,9.27
2022-09-06T05:32:22.500Z,7.30
2022-09-06T05:34:48.609Z,8.20
2022-09-06T05:37:14.649Z,7.78
2022-09-06T05:39:40.855Z,8.13
2022-09-06T05:42:07.099Z,8.52
2022-09-06T05:44:37.069Z,12.50
2022-09-06T05:47:04.083Z,9.80
2022-09-06T05:49:31.443Z,7.20
2022-09-06T05:51:58.139Z,8.40
2022-09-06T05:54:24.343Z,8.25
2022-09-06T05:56:50.533Z,7.07
2022-09-06T05:59:16.606Z,7.50
2022-09-06T06:01:53.471Z,7.45
2022-09-06T06:04:21.686Z,7.15
2022-09-06T06:06:48.655Z,7.70
2022-09-06T06:09:15.992Z,11.10
2022-09-06T06:11:42.115Z,10.23
2022-09-06T06:14:08.738Z,8.40
2022-09-06T06:16:35.141Z,7.97
2022-09-06T06:19:26.125Z,9.88
2022-09-06T06:21:52.831Z,8.38
2022-09-06T06:24:20.022Z,8.93
2022-09-06T06:26:46.101Z,10.68
2022-09-06T06:29:12.172Z,8.98
2022-09-06T06:31:38.771Z,10.00
2022-09-06T06:34:07.808Z,7.60
2022-09-06T06:36:35.253Z,7.43
2022-09-06T06:39:03.542Z,10.77
2022-09-06T06:41:31.178Z,7.38
2022-09-06T06:44:02.237Z,8.13
2022-09-06T06:46:34.140Z,6.40
2022-09-06T06:49:00.226Z,12.10
2022-09-06T06:51:28.715Z,9.00
2022-09-06T06:53:58.297Z,7.10
2022-09-06T06:56:33.133Z,9.88
2022-09-06T06:59:01.270Z,9.75
2022-09-06T07:01:30.796Z,7.65
2022-09-06T07:03:58.053Z,7.03
2022-09-06T07:09:16.110Z,9.77
2022-09-06T07:11:42.714Z,6.88
2022-09-06T07:14:09.437Z,8.45
2022-09-06T07:16:35.585Z,6.75
2022-09-06T07:19:01.951Z,9.82
2022-09-06T07:21:43.637Z,8.13
2022-09-06T07:24:10.326Z,10.35
2022-09-06T07:26:38.458Z,10.13
2022-09-06T07:29:06.431Z,8.57
2022-09-06T07:34:20.012Z,6.18
2022-09-06T07:36:46.194Z,6.55
2022-09-06T07:39:14.184Z,6.70
2022-09-06T07:41:40.269Z,5.78
2022-09-06T07:44:06.324Z,5.25
2022-09-06T07:46:32.611Z,7.07
2022-09-06T07:48:58.889Z,4.97
2022-09-06T07:51:25.038Z,7.60
2022-09-06T07:54:06.979Z,7.40
2022-09-06T07:56:39.612Z,5.65
2022-09-06T07:59:06.244Z,7.80
2022-09-06T08:01:38.960Z,6.90
2022-09-06T08:04:13.326Z,10.48
2022-09-06T08:09:36.544Z,5.90
2022-09-06T08:12:06.973Z,4.97
2022-09-06T08:14:34.020Z,5.13
2022-09-06T08:17:00.242Z,4.38
2022-09-06T08:19:26.411Z,6.28
2022-09-06T08:21:55.506Z,6.22
2022-09-06T08:24:21.570Z,7.55
2022-09-06T08:26:47.652Z,5.95
2022-09-06T08:29:15.913Z,5.68
2022-09-06T08:31:43.872Z,5.55
2022-09-06T08:34:14.417Z,4.35
2022-09-06T08:36:42.033Z,6.20
2022-09-06T08:39:09.368Z,3.72
2022-09-06T08:42:02.968Z,4.45
2022-09-06T08:47:21.756Z,4.90
2022-09-06T08:50:04.741Z,4.25
2022-09-06T08:52:30.860Z,5.60
2022-09-06T08:55:05.476Z,5.82
2022-09-06T08:58:09.833Z,2.85
2022-09-06T09:00:37.529Z,5.40
2022-09-06T09:03:24.351Z,6.85
2022-09-06T09:05:55.884Z,4.90
2022-09-06T09:08:51.791Z,4.63
2022-09-06T09:11:23.259Z,3.38
2022-09-06T09:14:19.751Z,4.97
2022-09-06T09:16:53.738Z,4.25
2022-09-06T09:19:20.999Z,4.05
2022-09-06T09:21:47.536Z,6.15
2022-09-06T09:24:15.201Z,2.30
2022-09-06T09:26:53.048Z,2.75
2022-09-06T09:29:22.718Z,5.32
2022-09-06T09:31:55.712Z,2.75
2022-09-06T09:34:35.034Z,6.45
2022-09-06T09:40:30.596Z,2.10
2022-09-06T09:43:29.981Z,3.30
2022-09-06T09:46:16.121Z,3.85
2022-09-06T09:49:01.252Z,8.73
2022-09-06T09:51:29.910Z,5.05
2022-09-06T09:54:01.272Z,7.32
2022-09-06T09:56:29.156Z,3.17
2022-09-06T09:58:57.595Z,7.65
2022-09-06T10:01:33.013Z,5.73
2022-09-06T10:09:38.051Z,5.03
2022-09-06T10:12:04.396Z,5.90
2022-09-06T10:14:38.925Z,4.38
2022-09-06T10:17:05.109Z,5.82
2022-09-06T10:19:37.455Z,5.00
2022-09-06T10:22:28.695Z,7.25
2022-09-06T10:24:57.919Z,4.03
2022-09-06T10:27:27.896Z,4.03
2022-09-06T10:30:08.751Z,7.18
2022-09-06T10:33:00.469Z,6.65
2022-09-06T10:35:31.470Z,3.35
2022-09-06T10:38:26.920Z,1.85
2022-09-06T10:41:18.045Z,3.80
2022-09-06T10:43:49.165Z,6.03
2022-09-06T10:46:20.972Z,3.28
2022-09-06T10:48:47.941Z,4.25
2022-09-06T10:51:40.580Z,2.05
2022-09-06T10:54:10.662Z,2.10
2022-09-06T10:59:38.625Z,6.72
2022-09-06T11:11:25.353Z,2.95
2022-09-06T11:13:51.538Z,2.75
2022-09-06T11:16:27.619Z,3.35
2022-09-06T11:18:53.689Z,5.40
2022-09-06T11:21:50.652Z,2.13
2022-09-06T11:24:17.099Z,7.80
2022-09-06T11:27:00.715Z,4.93
2022-09-06T11:29:29.134Z,5.32
2022-09-06T11:34:53.764Z,3.10
2022-09-06T11:37:48.929Z,5.00
2022-09-06T11:40:29.113Z,4.78
2022-09-06T11:42:55.469Z,2.85
2022-09-06T11:45:50.910Z,6.43
2022-09-06T11:48:23.182Z,4.15
2022-09-06T11:50:58.281Z,4.68
2022-09-06T11:53:47.453Z,4.95
2022-09-06T11:56:36.289Z,6.88
2022-09-06T11:59:26.559Z,5.60
2022-09-06T12:02:29.645Z,6.32
2022-09-06T12:05:00.342Z,4.63
2022-09-06T12:07:35.332Z,7.30
2022-09-06T12:10:20.681Z,6.47
2022-09-06T12:12:51.793Z,7.75
2022-09-06T12:15:53.732Z,4.55
2022-09-06T12:18:48.024Z,4.53
2022-09-06T12:21:35.988Z,11.93
2022-09-06T12:24:03.215Z,13.68
2022-09-06T12:32:05.249Z,6.28
2022-09-06T12:34:34.396Z,33.17
2022-09-06T12:37:04.265Z,6.40
2022-09-06T12:39:31.027Z,5.85
2022-09-06T12:42:01.713Z,6.25
2022-09-06T12:44:35.464Z,6.70
2022-09-06T12:47:10.895Z,4.15
2022-09-06T12:49:37.497Z,5.57
2022-09-06T12:52:15.680Z,5.72
2022-09-06T12:54:47.585Z,7.57
2022-09-06T12:57:23.478Z,8.70
2022-09-06T13:02:38.365Z,6.40
2022-09-06T13:05:08.156Z,3.28
2022-09-06T13:07:42.349Z,5.20
2022-09-06T13:10:13.108Z,4.38
2022-09-06T13:24:13.653Z,7.97
2022-09-06T13:26:44.793Z,4.75
2022-09-06T13:29:16.997Z,5.13
2022-09-06T13:32:02.982Z,6.05
2022-09-06T13:34:31.587Z,5.85
2022-09-06T13:37:07.173Z,6.95
2022-09-06T13:39:39.424Z,4.68
2022-09-06T13:42:06.824Z,5.50
2022-09-06T13:44:35.703Z,6.65
2022-09-06T13:47:02.849Z,6.18
2022-09-06T13:49:29.309Z,6.40
2022-09-06T13:52:00.300Z,5.05
2022-09-06T13:57:10.308Z,6.15
2022-09-06T14:05:17.357Z,5.07
2022-09-06T14:07:44.214Z,2.92
2022-09-06T14:10:14.381Z,5.47
2022-09-06T14:12:40.720Z,12.07
2022-09-06T14:15:07.092Z,5.25
2022-09-06T14:17:33.190Z,2.97
2022-09-06T14:20:27.442Z,7.38
2022-09-06T14:22:54.500Z,5.15
2022-09-06T14:25:20.883Z,4.10
2022-09-06T14:27:48.259Z,7.40
2022-09-06T14:30:15.016Z,6.35
2022-09-06T14:32:41.207Z,5.18
2022-09-06T14:35:08.301Z,6.88
2022-09-06T14:37:34.706Z,4.53
2022-09-06T14:40:00.993Z,4.30
2022-09-06T14:42:27.757Z,4.32
2022-09-06T14:44:54.257Z,3.80
2022-09-06T14:47:20.540Z,4.45
2022-09-06T14:49:46.837Z,5.70
2022-09-06T14:52:13.019Z,6.97
2022-09-06T14:54:39.425Z,5.10
2022-09-06T14:57:05.848Z,6.15
2022-09-06T14:59:32.425Z,9.13
2022-09-06T15:01:58.722Z,7.28
2022-09-06T15:04:25.818Z,8.02
2022-09-06T15:06:57.621Z,6.10
2022-09-06T15:09:23.930Z,8.35
2022-09-06T15:11:52.033Z,7.75
2022-09-06T15:14:24.366Z,5.32
2022-09-06T15:28:22.393Z,6.75
2022-09-06T15:30:49.091Z,6.80
2022-09-06T15:33:15.489Z,8.18
2022-09-06T15:35:42.650Z,6.15
2022-09-06T15:38:11.161Z,7.15
2022-09-06T15:40:38.181Z,6.18
2022-09-06T15:43:04.708Z,6.72
2022-09-06T15:45:33.683Z,5.28
2022-09-06T15:47:59.870Z,5.45
2022-09-06T15:50:49.829Z,9.20
2022-09-06T15:53:12.340Z,8.80
2022-09-06T15:55:56.655Z,5.05
2022-09-06T15:58:27.465Z,4.63
2022-09-06T16:01:09.711Z,9.88
2022-09-06T16:03:38.709Z,4.75
2022-09-06T16:06:27.895Z,4.40
2022-09-06T16:09:00.505Z,7.38
2022-09-06T16:11:27.753Z,4.90
2022-09-06T16:13:54.160Z,6.10
2022-09-06T16:16:21.855Z,5.55
2022-09-06T16:18:48.253Z,5.95
2022-09-06T16:21:18.049Z,5.22
2022-09-06T16:23:50.182Z,5.05
2022-09-06T16:26:21.107Z,7.72
2022-09-06T16:28:49.015Z,7.97
2022-09-06T16:31:15.239Z,6.97
2022-09-06T16:33:43.561Z,14.68
2022-09-06T16:36:10.229Z,9.25
2022-09-06T16:38:37.887Z,6.03
2022-09-06T16:41:18.231Z,5.18
2022-09-06T16:43:45.788Z,5.53
2022-09-06T16:46:12.897Z,9.27
2022-09-06T16:48:42.293Z,17.13
2022-09-06T16:51:17.236Z,14.32
2022-09-06T16:53:45.129Z,6.47
2022-09-06T16:56:14.216Z,8.00
2022-09-06T16:58:41.415Z,6.78
2022-09-06T17:01:08.875Z,2.85
2022-09-06T17:03:36.453Z,7.72
2022-09-06T17:06:03.459Z,9.93
2022-09-06T17:08:34.729Z,6.60
2022-09-06T17:11:06.629Z,14.23
2022-09-06T17:13:33.184Z,9.68
2022-09-06T17:16:21.893Z,4.10
2022-09-06T17:18:49.200Z,6.25
2022-09-06T17:21:15.625Z,5.18
2022-09-06T17:23:41.825Z,5.78
2022-09-06T17:26:08.090Z,11.20
2022-09-06T17:28:38.930Z,8.48
2022-09-06T17:31:06.935Z,8.63
2022-09-06T17:33:34.522Z,8.00
2022-09-06T17:36:04.182Z,11.23
2022-09-06T17:38:30.524Z,12.48
2022-09-06T17:41:00.320Z,3.22
2022-09-06T17:43:27.022Z,6.65
2022-09-06T17:45:53.233Z,7.40
2022-09-06T17:48:19.646Z,6.55
2022-09-06T17:50:45.979Z,3.28
2022-09-06T17:53:12.629Z,5.50
2022-09-06T17:55:40.381Z,9.73
2022-09-06T17:58:07.653Z,3.42
2022-09-06T18:00:36.807Z,4.57
2022-09-06T18:03:03.028Z,5.60
2022-09-06T18:05:29.393Z,6.38
2022-09-06T18:07:55.597Z,6.95
2022-09-06T18:10:21.711Z,9.40
2022-09-06T18:12:47.991Z,10.50
2022-09-06T18:15:14.118Z,8.05
2022-09-06T18:17:40.253Z,7.50
2022-09-06T18:20:07.155Z,6.35
2022-09-06T18:22:33.270Z,8.50
2022-09-06T18:24:59.413Z,7.30
2022-09-06T18:27:25.500Z,5.13
2022-09-06T18:29:51.574Z,4.85
2022-09-06T18:32:17.660Z,10.65
2022-09-06T18:34:44.055Z,11.65
2022-09-06T18:37:10.229Z,12.23
2022-09-06T18:39:36.358Z,4.47
2022-09-06T18:42:06.436Z,11.75
2022-09-06T18:44:33.954Z,8.13
2022-09-06T18:47:02.451Z,9.77
2022-09-06T18:49:30.253Z,7.10
2022-09-06T18:51:56.369Z,6.45
2022-09-06T18:54:22.654Z,5.63
2022-09-06T18:56:49.456Z,11.23
2022-09-06T18:59:16.128Z,6.00
2022-09-06T19:01:42.639Z,7.35
2022-09-06T19:04:10.052Z,8.88
2022-09-06T19:06:38.963Z,4.57
2022-09-06T19:09:07.952Z,4.25
2022-09-06T19:11:34.633Z,8.57
2022-09-06T19:14:01.362Z,6.25
2022-09-06T19:16:28.968Z,5.95
2022-09-06T19:19:00.778Z,16.55
2022-09-06T19:21:27.102Z,10.93
2022-09-06T19:24:05.500Z,10.82
2022-09-06T19:26:34.988Z,13.05
2022-09-06T19:29:04.551Z,13.95
2022-09-06T19:31:35.338Z,15.48
2022-09-06T19:34:03.586Z,14.90
2022-09-06T19:36:31.282Z,14.63
2022-09-06T19:39:03.623Z,17.45
2022-09-06T19:41:33.134Z,27.30
2022-09-06T19:43:59.904Z,16.58
2022-09-06T19:46:26.299Z,14.27
2022-09-06T19:48:55.187Z,11.88
2022-09-06T19:51:22.373Z,16.80
2022-09-06T19:53:52.415Z,16.73
2022-09-06T19:56:24.858Z,16.60
2022-09-06T19:58:56.517Z,16.75
2022-09-06T20:01:24.626Z,20.88
2022-09-06T20:03:51.905Z,16.38
2022-09-06T20:06:18.390Z,21.40
2022-09-06T20:08:49.569Z,14.32
2022-09-06T20:13:43.545Z,17.48
2022-09-06T20:16:10.473Z,15.80
2022-09-06T20:18:37.112Z,28.10
2022-09-06T20:21:04.323Z,25.17
2022-09-06T20:23:32.088Z,21.17
2022-09-06T20:26:04.472Z,19.83
2022-09-06T20:28:31.511Z,20.42
2022-09-06T20:31:28.188Z,16.38
2022-09-06T20:33:55.129Z,25.92
2022-09-06T20:36:21.188Z,22.27
2022-09-06T20:38:48.284Z,13.63
2022-09-06T20:41:17.122Z,31.30
2022-09-06T20:43:43.617Z,14.13
2022-09-06T20:46:19.431Z,18.13
2022-09-06T20:48:46.684Z,20.77
2022-09-06T20:51:19.356Z,20.38
2022-09-06T20:53:54.257Z,17.60
2022-09-06T20:56:23.735Z,14.77
2022-09-06T20:58:52.375Z,23.30
2022-09-06T21:01:22.061Z,22.13
2022-09-06T21:03:51.082Z,23.08
2022-09-06T21:06:17.322Z,22.92
2022-09-06T21:08:43.874Z,17.70
2022-09-06T21:11:10.210Z,18.70
2022-09-06T21:13:36.925Z,20.10
2022-09-06T21:16:04.195Z,15.73
2022-09-06T21:18:31.166Z,14.35
2022-09-06T21:21:02.543Z,19.65
2022-09-06T21:23:30.053Z,18.38
2022-09-06T21:26:06.018Z,18.90
2022-09-06T21:28:37.474Z,15.40
2022-09-06T21:31:08.521Z,17.80
2022-09-06T21:33:37.069Z,21.23
2022-09-06T21:36:11.377Z,14.00
2022-09-06T21:38:39.835Z,15.73
2022-09-06T21:41:07.803Z,14.43
2022-09-06T21:43:34.371Z,19.42
2022-09-06T21:46:09.152Z,14.43
2022-09-06T21:48:44.040Z,17.23
2022-09-06T21:51:13.612Z,15.90
2022-09-06T21:53:41.297Z,16.52
2022-09-06T21:56:07.916Z,14.80
2022-09-06T21:58:34.619Z,13.25
2022-09-06T22:01:02.275Z,18.45
2022-09-06T22:03:34.507Z,14.77
2022-09-06T22:06:21.597Z,17.13
2022-09-06T22:08:48.565Z,19.95
2022-09-06T22:11:20.397Z,16.17
2022-09-06T22:13:48.144Z,20.88
2022-09-06T22:16:16.784Z,17.88
2022-09-06T22:18:49.123Z,24.90
2022-09-06T22:21:20.702Z,18.10
2022-09-06T22:24:07.875Z,19.00
2022-09-06T22:26:36.380Z,19.60
2022-09-06T22:29:05.772Z,14.00
2022-09-06T22:31:32.869Z,15.90
2022-09-06T22:34:00.006Z,14.27
2022-09-06T22:36:26.840Z,17.90
2022-09-06T22:38:56.767Z,16.17
2022-09-06T22:41:25.048Z,13.25
2022-09-06T22:43:51.201Z,16.13
2022-09-06T22:46:17.436Z,7.32
2022-09-06T22:48:43.657Z,11.25
2022-09-06T22:51:09.821Z,8.50
2022-09-06T22:53:36.243Z,7.65
2022-09-06T22:56:03.269Z,5.30
2022-09-06T22:58:30.069Z,16.50
2022-09-06T23:00:56.648Z,13.25
2022-09-06T23:03:22.879Z,7.72
2022-09-06T23:05:49.042Z,9.10
2022-09-06T23:08:15.604Z,4.90
2022-09-06T23:10:43.290Z,4.93
2022-09-06T23:13:10.549Z,6.50
2022-09-06T23:15:39.899Z,8.10
2022-09-06T23:18:06.308Z,5.03
2022-09-06T23:20:34.316Z,3.97
2022-09-06T23:23:00.600Z,7.03
2022-09-06T23:25:26.741Z,5.53
2022-09-06T23:27:52.839Z,7.85
2022-09-06T23:30:20.338Z,6.88
2022-09-06T23:32:46.420Z,8.85
2022-09-06T23:35:12.546Z,4.88
2022-09-06T23:37:38.923Z,5.47
2022-09-06T23:40:08.962Z,7.50
2022-09-06T23:42:35.337Z,6.32
2022-09-06T23:45:01.416Z,5.70
2022-09-06T23:47:27.709Z,6.97
2022-09-06T23:49:54.060Z,5.13
2022-09-06T23:52:20.435Z,8.93
2022-09-06T23:54:46.843Z,6.72
2022-09-06T23:57:13.248Z,4.90
2022-09-06T23:59:39.396Z,7.63
